This is the latest recevied weather packets stored in our database for station/object LRTZ. If no packets are shown the sender has not sent any weather packets the latest 10 day(s).
| Time | Temp. | Humidity | Pressure | Rain* | Wind** | Luminosity | Snow |
|---|---|---|---|---|---|---|---|
| 1777979943 | 16.11° C | 63% | 1016 hPa | - | - | - | - |
| 1777979043 | 16.11° C | 63% | 1016 hPa | - | - | - | - |
| 1777978143 | 17.22° C | 49% | 1016 hPa | - | - | - | - |
| 1777977244 | 17.22° C | 49% | 1016 hPa | - | - | - | - |
| 1777976344 | 17.22° C | 49% | 1016 hPa | - | - | - | - |
| 1777975443 | 17.22° C | 49% | 1016 hPa | - | - | - | - |
| 1777974544 | 17.22° C | 45% | 1016 hPa | - | - | - | - |
| 1777973642 | 17.22° C | 45% | 1016 hPa | - | - | - | - |
| 1777972743 | 17.22° C | 45% | 1016 hPa | - | - | - | - |
| 1777971842 | 17.22° C | 45% | 1016 hPa | - | - | - | - |
| 1777970943 | 17.78° C | 40% | 1016 hPa | - | - | - | - |
| 1777970043 | 17.78° C | 40% | 1016 hPa | - | - | - | - |
| 1777969143 | 17.78° C | 40% | 1016 hPa | - | - | - | - |
| 1777968248 | 17.78° C | 40% | 1016 hPa | - | - | - | - |
| 1777966442 | 16.11° C | 48% | 1016 hPa | - | - | - | - |
| 1777965543 | 16.11° C | 48% | 1016 hPa | - | - | - | - |
| 1777964642 | 16.11° C | 48% | 1016 hPa | - | - | - | - |
| 1777963742 | 12.78° C | 67% | 1016 hPa | - | - | - | - |
| 1777962843 | 12.78° C | 67% | 1016 hPa | - | - | - | - |
| 1777961943 | 12.78° C | 67% | 1016 hPa | - | - | - | - |
| 1777961043 | 12.78° C | 67% | 1016 hPa | - | - | - | - |
| 1777960142 | 8.89° C | 71% | 1015 hPa | - | - | - | - |
| 1777959243 | 8.89° C | 71% | 1015 hPa | - | - | - | - |
| 1777958342 | 8.89° C | 71% | 1015 hPa | - | - | - | - |
| 1777957443 | 8.89° C | 71% | 1015 hPa | - | - | - | - |
* Rain since midnight (hover to see other rain measurements)
** Current wind speed in m/s (hover to see current wind gust speed)